createdAt,value
2022-10-22T00:00:29.660Z,34.67
2022-10-22T00:03:12.819Z,33.77
2022-10-22T00:05:56.161Z,37.47
2022-10-22T00:08:39.843Z,37.43
2022-10-22T00:11:24.178Z,39.93
2022-10-22T00:14:08.091Z,37.03
2022-10-22T00:16:52.573Z,40.03
2022-10-22T00:19:35.748Z,35.13
2022-10-22T00:22:19.539Z,38.70
2022-10-22T00:25:02.644Z,39.97
2022-10-22T00:27:45.735Z,44.47
2022-10-22T00:30:30.144Z,36.80
2022-10-22T00:33:15.107Z,35.33
2022-10-22T00:35:58.791Z,39.00
2022-10-22T00:38:42.295Z,32.30
2022-10-22T00:41:25.657Z,32.87
2022-10-22T00:44:08.959Z,37.80
2022-10-22T00:46:52.631Z,33.30
2022-10-22T00:49:37.552Z,34.57
2022-10-22T00:52:21.178Z,33.50
2022-10-22T00:55:05.118Z,28.53
2022-10-22T00:57:49.093Z,33.60
2022-10-22T01:00:33.017Z,33.87
2022-10-22T01:03:16.349Z,30.97
2022-10-22T01:06:03.059Z,31.20
2022-10-22T01:08:53.398Z,28.37
2022-10-22T01:11:49.681Z,33.17
2022-10-22T01:14:42.911Z,30.27
2022-10-22T01:17:33.821Z,29.00
2022-10-22T01:20:36.126Z,32.40
2022-10-22T01:23:47.121Z,26.67
2022-10-22T01:26:45.358Z,27.30
2022-10-22T01:29:35.575Z,30.57
2022-10-22T01:32:22.220Z,34.00
2022-10-22T01:35:09.170Z,29.43
2022-10-22T01:37:57.146Z,32.00
2022-10-22T01:40:41.290Z,32.73
2022-10-22T01:43:24.403Z,27.87
2022-10-22T01:46:11.935Z,28.67
2022-10-22T01:49:18.633Z,29.77
2022-10-22T01:52:14.390Z,33.03
2022-10-22T01:55:18.829Z,28.97
2022-10-22T01:58:15.200Z,29.17
2022-10-22T02:01:06.993Z,27.33
2022-10-22T02:03:57.993Z,27.53
2022-10-22T02:06:45.484Z,28.87
2022-10-22T02:09:30.653Z,28.77
2022-10-22T02:12:15.268Z,34.60
2022-10-22T02:15:00.275Z,31.13
2022-10-22T02:17:46.565Z,33.27
2022-10-22T02:20:34.252Z,36.63
2022-10-22T02:23:18.196Z,36.10
2022-10-22T02:26:05.268Z,50.93
2022-10-22T02:28:55.411Z,37.20
2022-10-22T02:31:42.255Z,41.23
2022-10-22T02:34:29.030Z,46.20
2022-10-22T02:37:14.754Z,44.77
2022-10-22T02:39:57.862Z,47.93
2022-10-22T02:42:43.321Z,43.60
2022-10-22T02:45:27.469Z,50.80
2022-10-22T02:48:10.596Z,48.90
2022-10-22T02:50:53.729Z,44.73
2022-10-22T02:53:38.298Z,42.40
2022-10-22T02:56:21.812Z,44.43
2022-10-22T02:59:05.020Z,46.10
2022-10-22T03:01:48.089Z,48.73
2022-10-22T03:04:31.668Z,43.03
2022-10-22T03:07:14.825Z,43.07
2022-10-22T03:09:59.369Z,42.73
2022-10-22T03:12:42.716Z,51.47
2022-10-22T03:15:25.842Z,44.23
2022-10-22T03:18:08.961Z,45.43
2022-10-22T03:20:52.043Z,46.83
2022-10-22T03:23:35.375Z,47.17
2022-10-22T03:26:20.346Z,88.70
2022-10-22T03:29:03.863Z,46.60
2022-10-22T03:31:47.273Z,53.93
2022-10-22T03:34:30.504Z,46.43
2022-10-22T03:37:14.256Z,47.80
2022-10-22T03:39:57.338Z,52.47
2022-10-22T03:42:42.792Z,49.03
2022-10-22T03:45:25.922Z,46.47
2022-10-22T03:48:09.411Z,52.87
2022-10-22T03:50:52.739Z,46.70
2022-10-22T03:53:37.342Z,55.03
2022-10-22T03:56:20.443Z,49.67
2022-10-22T03:59:05.166Z,45.13
2022-10-22T04:01:48.436Z,51.30
2022-10-22T04:04:31.746Z,49.77
2022-10-22T04:07:15.091Z,55.77
2022-10-22T04:09:58.190Z,63.40
2022-10-22T04:12:41.302Z,56.33
2022-10-22T04:15:28.186Z,60.47
2022-10-22T04:18:11.266Z,52.43
2022-10-22T04:20:54.315Z,63.83
2022-10-22T04:23:38.148Z,66.70
2022-10-22T04:26:21.992Z,66.13
2022-10-22T04:29:05.214Z,55.83
2022-10-22T04:31:49.866Z,60.27
2022-10-22T04:34:33.063Z,55.97
2022-10-22T04:37:16.421Z,53.33
2022-10-22T04:39:59.606Z,56.10
2022-10-22T04:42:42.753Z,56.93
2022-10-22T04:45:25.886Z,62.73
2022-10-22T04:48:10.436Z,65.07
2022-10-22T04:50:53.570Z,64.20
2022-10-22T04:53:37.424Z,58.37
2022-10-22T04:56:23.156Z,65.90
2022-10-22T04:59:10.201Z,61.53
2022-10-22T05:01:53.299Z,63.20
2022-10-22T05:04:37.945Z,57.27
2022-10-22T05:07:21.319Z,57.37
2022-10-22T05:10:04.512Z,55.60
2022-10-22T05:12:47.618Z,61.03
2022-10-22T05:15:30.733Z,56.83
2022-10-22T05:18:15.860Z,68.17
2022-10-22T05:21:01.294Z,59.00
2022-10-22T05:23:45.545Z,65.87
2022-10-22T05:26:29.799Z,64.87
2022-10-22T05:29:14.096Z,71.30
2022-10-22T05:31:57.537Z,63.23
2022-10-22T05:34:40.707Z,58.30
2022-10-22T05:37:25.279Z,58.07
2022-10-22T05:40:19.569Z,66.17
2022-10-22T05:43:10.036Z,53.47
2022-10-22T05:45:53.131Z,49.20
2022-10-22T05:48:36.684Z,45.80
2022-10-22T05:51:20.286Z,50.77
2022-10-22T05:54:07.762Z,53.17
2022-10-22T05:56:51.520Z,48.83
2022-10-22T05:59:35.126Z,47.80
2022-10-22T06:02:18.341Z,50.60
2022-10-22T06:05:02.554Z,46.53
2022-10-22T06:07:48.346Z,37.47
2022-10-22T06:10:33.671Z,48.37
2022-10-22T06:13:16.756Z,30.57
2022-10-22T06:16:00.094Z,28.57
2022-10-22T06:18:43.604Z,31.77
2022-10-22T06:21:26.808Z,31.87
2022-10-22T06:24:11.554Z,29.13
2022-10-22T06:26:56.723Z,31.03
2022-10-22T06:29:40.103Z,28.33
2022-10-22T06:32:23.520Z,33.67
2022-10-22T06:35:07.560Z,29.97
2022-10-22T06:37:50.787Z,30.60
2022-10-22T06:40:34.249Z,33.33
2022-10-22T06:43:19.040Z,37.87
2022-10-22T06:46:02.781Z,40.73
2022-10-22T06:48:50.753Z,34.90
2022-10-22T06:51:34.152Z,40.60
2022-10-22T06:54:17.371Z,42.73
2022-10-22T06:57:00.709Z,44.77
2022-10-22T06:59:45.241Z,35.77
2022-10-22T07:02:28.348Z,42.60
2022-10-22T07:05:11.562Z,48.07
2022-10-22T07:07:54.717Z,37.10
2022-10-22T07:10:38.107Z,41.07
2022-10-22T07:13:21.278Z,45.33
2022-10-22T07:16:07.417Z,46.43
2022-10-22T07:18:52.618Z,44.40
2022-10-22T07:21:36.183Z,53.10
2022-10-22T07:24:19.277Z,54.63
2022-10-22T07:27:02.600Z,44.77
2022-10-22T07:29:45.928Z,45.23
2022-10-22T07:32:30.517Z,45.13
2022-10-22T07:35:13.582Z,49.60
2022-10-22T07:37:56.767Z,45.47
2022-10-22T07:40:40.030Z,52.40
2022-10-22T07:43:23.550Z,51.33
2022-10-22T07:46:08.526Z,47.30
2022-10-22T07:48:53.465Z,56.90
2022-10-22T07:51:36.645Z,49.00
2022-10-22T07:54:20.088Z,46.83
2022-10-22T07:57:03.467Z,50.90
2022-10-22T07:59:48.300Z,49.10
2022-10-22T08:02:31.411Z,50.83
2022-10-22T08:05:16.529Z,53.20
2022-10-22T08:08:00.664Z,59.03
2022-10-22T08:10:44.500Z,56.93
2022-10-22T08:13:30.241Z,49.07
2022-10-22T08:16:13.400Z,44.20
2022-10-22T08:18:56.485Z,52.20
2022-10-22T08:21:41.515Z,49.87
2022-10-22T08:24:24.647Z,41.17
2022-10-22T08:27:07.920Z,66.33
2022-10-22T08:29:51.043Z,59.10
2022-10-22T08:32:34.327Z,50.63
2022-10-22T08:35:17.875Z,45.80
2022-10-22T08:38:05.377Z,61.67
2022-10-22T08:40:51.631Z,52.93
2022-10-22T08:44:04.633Z,48.33
2022-10-22T08:47:05.901Z,46.97
2022-10-22T08:49:49.068Z,47.37
2022-10-22T08:52:35.252Z,42.07
2022-10-22T08:55:20.373Z,54.80
2022-10-22T08:58:16.133Z,58.63
2022-10-22T09:01:01.936Z,59.67
2022-10-22T09:03:52.069Z,50.77
2022-10-22T09:06:38.136Z,55.30
2022-10-22T09:09:21.917Z,44.33
2022-10-22T09:12:08.699Z,42.23
2022-10-22T09:14:52.310Z,42.67
2022-10-22T09:17:40.609Z,42.60
2022-10-22T09:20:33.994Z,36.43
2022-10-22T09:23:34.384Z,40.90
2022-10-22T09:26:18.776Z,52.97
2022-10-22T09:29:03.499Z,36.30
2022-10-22T09:31:47.008Z,43.87
2022-10-22T09:34:31.198Z,49.37
2022-10-22T09:37:19.070Z,44.60
2022-10-22T09:40:06.996Z,43.77
2022-10-22T09:42:52.838Z,35.17
2022-10-22T09:45:37.525Z,31.73
2022-10-22T09:48:26.584Z,35.00
2022-10-22T09:51:16.907Z,28.60
2022-10-22T09:54:02.655Z,30.77
2022-10-22T09:56:52.631Z,37.73
2022-10-22T09:59:42.092Z,31.77
2022-10-22T10:02:38.742Z,29.40
2022-10-22T10:05:31.398Z,35.50
2022-10-22T10:08:16.839Z,36.03
2022-10-22T10:11:03.997Z,32.43
2022-10-22T10:13:55.088Z,34.40
2022-10-22T10:16:46.559Z,36.83
2022-10-22T10:19:47.092Z,34.30
2022-10-22T10:22:43.505Z,28.47
2022-10-22T10:25:42.817Z,25.47
2022-10-22T10:28:54.373Z,25.37
2022-10-22T10:31:46.472Z,31.03
2022-10-22T10:34:45.117Z,26.40
2022-10-22T10:37:32.429Z,25.93
2022-10-22T10:40:29.298Z,27.47
2022-10-22T10:43:19.133Z,27.73
2022-10-22T10:46:12.258Z,29.10
2022-10-22T10:48:57.755Z,18.57
2022-10-22T10:51:50.875Z,20.70
2022-10-22T10:54:45.084Z,24.10
2022-10-22T10:57:41.144Z,21.80
2022-10-22T11:00:25.086Z,27.20
2022-10-22T11:03:32.981Z,23.83
2022-10-22T11:06:21.572Z,22.73
2022-10-22T11:09:23.191Z,20.23
2022-10-22T11:12:11.744Z,25.00
2022-10-22T11:15:03.140Z,18.58
2022-10-22T11:17:50.102Z,39.07
2022-10-22T11:20:42.891Z,26.37
2022-10-22T11:23:34.111Z,18.60
2022-10-22T11:26:28.879Z,27.23
2022-10-22T11:29:18.984Z,19.33
2022-10-22T11:32:04.251Z,26.20
2022-10-22T11:34:52.107Z,21.17
2022-10-22T11:37:39.362Z,19.57
2022-10-22T11:40:34.143Z,23.43
2022-10-22T11:43:31.334Z,23.03
2022-10-22T11:46:30.058Z,31.37
2022-10-22T11:49:24.544Z,24.73
2022-10-22T11:52:25.002Z,23.17
2022-10-22T11:55:33.259Z,22.90
2022-10-22T11:58:44.014Z,30.07
2022-10-22T12:01:30.009Z,26.47
2022-10-22T12:04:23.600Z,29.43
2022-10-22T12:07:36.524Z,21.40
2022-10-22T12:10:21.635Z,23.50
2022-10-22T12:13:14.687Z,25.23
2022-10-22T12:16:00.243Z,28.90
2022-10-22T12:18:45.733Z,24.87
2022-10-22T12:21:28.942Z,29.53
2022-10-22T12:24:16.682Z,20.63
2022-10-22T12:27:02.939Z,27.20
2022-10-22T12:29:46.110Z,29.33
2022-10-22T12:32:35.442Z,24.47
2022-10-22T12:35:21.412Z,28.33
2022-10-22T12:38:14.155Z,24.43
2022-10-22T12:40:58.879Z,32.57
2022-10-22T12:43:42.029Z,25.10
2022-10-22T12:46:25.276Z,22.00
2022-10-22T12:49:17.853Z,20.53
2022-10-22T12:52:04.435Z,24.10
2022-10-22T12:54:48.861Z,29.77
2022-10-22T12:57:33.379Z,31.50
2022-10-22T13:00:25.432Z,24.00
2022-10-22T13:03:08.963Z,29.10
2022-10-22T13:05:52.339Z,36.97
2022-10-22T13:08:35.886Z,37.90
2022-10-22T13:11:21.882Z,29.80
2022-10-22T13:14:16.882Z,40.47
2022-10-22T13:17:12.371Z,31.77
2022-10-22T13:20:05.362Z,33.90
2022-10-22T13:22:58.181Z,49.47
2022-10-22T13:25:41.569Z,24.70
2022-10-22T13:28:26.537Z,25.60
2022-10-22T13:31:18.205Z,29.47
2022-10-22T13:34:09.713Z,26.77
2022-10-22T13:36:55.003Z,24.30
2022-10-22T13:39:38.227Z,24.77
2022-10-22T13:42:21.373Z,32.93
2022-10-22T13:45:04.754Z,24.20
2022-10-22T13:47:53.253Z,23.87
2022-10-22T13:50:36.990Z,31.53
2022-10-22T13:53:22.803Z,21.53
2022-10-22T13:56:06.003Z,38.03
2022-10-22T13:58:49.929Z,24.97
2022-10-22T14:01:33.173Z,24.87
2022-10-22T14:04:17.846Z,27.67
2022-10-22T14:07:03.894Z,26.77
2022-10-22T14:09:47.357Z,25.50
2022-10-22T14:12:30.745Z,35.07
2022-10-22T14:15:16.226Z,27.47
2022-10-22T14:18:01.503Z,28.93
2022-10-22T14:20:46.013Z,26.13
2022-10-22T14:23:30.854Z,28.73
2022-10-22T14:26:22.775Z,31.60
2022-10-22T14:29:10.196Z,31.33
2022-10-22T14:31:54.082Z,22.80
2022-10-22T14:34:37.272Z,36.83
2022-10-22T14:37:23.715Z,28.07
2022-10-22T14:40:08.259Z,27.83
2022-10-22T14:42:52.485Z,31.13
2022-10-22T14:45:35.659Z,38.43
2022-10-22T14:51:02.561Z,30.03
2022-10-22T14:53:48.045Z,34.27
2022-10-22T14:56:31.632Z,35.70
2022-10-22T14:59:14.944Z,31.77
2022-10-22T15:01:58.402Z,27.70
2022-10-22T15:04:41.629Z,36.27
2022-10-22T15:07:24.875Z,36.83
2022-10-22T15:10:10.934Z,47.10
2022-10-22T15:12:54.062Z,45.80
2022-10-22T15:15:39.741Z,44.73
2022-10-22T15:18:29.464Z,52.77
2022-10-22T15:21:17.189Z,45.50
2022-10-22T15:24:00.883Z,43.23
2022-10-22T15:26:45.543Z,120.03
2022-10-22T15:29:28.662Z,144.20
2022-10-22T15:32:12.326Z,54.30
2022-10-22T15:34:57.015Z,73.50
2022-10-22T15:37:40.118Z,51.10
2022-10-22T15:40:23.737Z,42.77
2022-10-22T15:43:08.364Z,44.80
2022-10-22T15:46:13.627Z,46.90
2022-10-22T15:48:56.792Z,55.97
2022-10-22T15:51:40.228Z,45.83
2022-10-22T15:54:28.787Z,36.47
2022-10-22T15:57:11.933Z,58.70
2022-10-22T15:59:56.580Z,54.57
2022-10-22T16:02:39.867Z,41.43
2022-10-22T16:05:23.086Z,49.93
2022-10-22T16:08:06.767Z,53.70
2022-10-22T16:10:50.154Z,45.50
2022-10-22T16:13:33.257Z,48.40
2022-10-22T16:16:17.807Z,47.63
2022-10-22T16:19:35.163Z,47.07
2022-10-22T16:22:20.464Z,55.57
2022-10-22T16:25:07.718Z,56.07
2022-10-22T16:27:51.749Z,54.07
2022-10-22T16:30:40.080Z,74.83
2022-10-22T16:33:39.130Z,48.10
2022-10-22T16:36:27.916Z,62.00
2022-10-22T16:39:11.133Z,49.00
2022-10-22T16:41:54.323Z,45.67
2022-10-22T16:44:41.679Z,54.57
2022-10-22T16:47:24.860Z,51.83
2022-10-22T16:50:10.770Z,42.27
2022-10-22T16:52:54.415Z,44.23
2022-10-22T16:55:37.771Z,44.77
2022-10-22T16:58:25.736Z,35.47
2022-10-22T17:01:16.958Z,51.63
2022-10-22T17:04:01.455Z,38.30
2022-10-22T17:07:03.159Z,41.97
2022-10-22T17:09:48.462Z,43.07
2022-10-22T17:12:35.451Z,36.77
2022-10-22T17:15:18.836Z,34.33
2022-10-22T17:18:04.164Z,41.40
2022-10-22T17:20:47.330Z,32.07
2022-10-22T17:23:31.891Z,33.97
2022-10-22T17:26:17.545Z,32.70
2022-10-22T17:29:00.804Z,37.20
2022-10-22T17:31:44.427Z,38.50
2022-10-22T17:34:30.334Z,38.77
2022-10-22T17:37:13.420Z,37.20
2022-10-22T17:39:58.037Z,34.10
2022-10-22T17:42:41.486Z,44.87
2022-10-22T17:45:25.058Z,34.77
2022-10-22T17:48:08.173Z,39.20
2022-10-22T17:50:53.631Z,38.00
2022-10-22T17:53:42.941Z,40.13
2022-10-22T17:56:29.942Z,31.67
2022-10-22T17:59:15.970Z,50.20
2022-10-22T18:02:02.321Z,38.20
2022-10-22T18:04:45.769Z,42.93
2022-10-22T18:07:28.956Z,37.77
2022-10-22T18:10:12.252Z,41.00
2022-10-22T18:12:56.873Z,40.53
2022-10-22T18:15:39.994Z,40.40
2022-10-22T18:18:23.290Z,41.57
2022-10-22T18:21:06.564Z,43.40
2022-10-22T18:23:51.620Z,54.63
2022-10-22T18:26:34.750Z,51.77
2022-10-22T18:29:20.846Z,53.10
2022-10-22T18:32:09.397Z,57.27
2022-10-22T18:34:55.483Z,48.07
2022-10-22T18:37:40.141Z,51.93
2022-10-22T18:40:23.512Z,48.77
2022-10-22T18:43:06.727Z,39.37
2022-10-22T18:45:52.510Z,47.13
2022-10-22T18:48:36.237Z,50.03
2022-10-22T18:51:19.622Z,42.17
2022-10-22T18:54:11.226Z,34.87
2022-10-22T18:57:03.236Z,41.50
2022-10-22T18:59:49.485Z,34.83
2022-10-22T19:02:35.455Z,49.50
2022-10-22T19:05:18.746Z,41.77
2022-10-22T19:08:01.917Z,40.50
2022-10-22T19:10:47.243Z,39.77
2022-10-22T19:13:30.356Z,43.60
2022-10-22T19:16:18.474Z,46.03
2022-10-22T19:19:05.563Z,40.80
2022-10-22T19:21:49.698Z,52.90
2022-10-22T19:24:32.996Z,41.73
2022-10-22T19:27:17.772Z,49.97
2022-10-22T19:30:01.101Z,48.00
2022-10-22T19:32:51.496Z,45.40
2022-10-22T19:35:37.769Z,44.17
2022-10-22T19:38:22.275Z,40.30
2022-10-22T19:41:07.303Z,44.83
2022-10-22T19:43:52.776Z,47.60
2022-10-22T19:46:36.740Z,52.60
2022-10-22T19:49:26.970Z,45.40
2022-10-22T19:52:11.439Z,40.87
2022-10-22T19:54:58.428Z,42.43
2022-10-22T19:57:43.126Z,42.13
2022-10-22T20:00:43.906Z,32.80
2022-10-22T20:03:27.324Z,40.90
2022-10-22T20:06:13.376Z,34.13
2022-10-22T20:08:58.494Z,33.57
2022-10-22T20:11:41.667Z,31.57
2022-10-22T20:14:24.814Z,32.50
2022-10-22T20:17:08.333Z,32.73
2022-10-22T20:19:51.477Z,31.40
2022-10-22T20:22:34.555Z,37.03
2022-10-22T20:25:19.536Z,30.17
2022-10-22T20:28:02.834Z,33.67
2022-10-22T20:30:46.770Z,38.43
2022-10-22T20:33:29.836Z,27.47
2022-10-22T20:36:17.212Z,31.93
2022-10-22T20:39:02.623Z,33.53
2022-10-22T20:41:47.195Z,33.57
2022-10-22T20:44:30.306Z,32.13
2022-10-22T20:47:14.382Z,35.03
2022-10-22T20:49:57.498Z,31.83
2022-10-22T20:52:41.084Z,31.57
2022-10-22T20:55:24.268Z,34.93
2022-10-22T20:58:08.856Z,36.17
2022-10-22T21:00:52.649Z,36.47
2022-10-22T21:03:36.496Z,34.40
2022-10-22T21:06:21.068Z,29.63
2022-10-22T21:09:04.354Z,34.30
2022-10-22T21:11:48.075Z,33.67
2022-10-22T21:14:32.758Z,42.87
2022-10-22T21:17:15.894Z,35.20
2022-10-22T21:20:00.551Z,30.10
2022-10-22T21:22:43.896Z,31.23
2022-10-22T21:25:27.261Z,35.33
2022-10-22T21:28:10.706Z,42.90
2022-10-22T21:30:55.201Z,36.40
2022-10-22T21:33:39.466Z,37.70
2022-10-22T21:36:24.228Z,39.03
2022-10-22T21:39:08.232Z,36.33
2022-10-22T21:41:51.314Z,34.53
2022-10-22T21:44:35.056Z,35.20
2022-10-22T21:47:19.758Z,38.90
2022-10-22T21:50:03.128Z,37.10
2022-10-22T21:52:46.234Z,39.23
2022-10-22T21:55:30.553Z,35.30
2022-10-22T21:58:13.657Z,40.80
2022-10-22T22:00:58.544Z,30.77
2022-10-22T22:03:45.682Z,38.23
2022-10-22T22:06:33.136Z,37.07
2022-10-22T22:09:16.956Z,42.87
2022-10-22T22:12:00.097Z,41.47
2022-10-22T22:14:43.364Z,41.20
2022-10-22T22:17:26.451Z,39.20
2022-10-22T22:20:12.054Z,39.27
2022-10-22T22:22:55.286Z,34.10
2022-10-22T22:25:38.354Z,33.80
2022-10-22T22:28:21.494Z,37.70
2022-10-22T22:31:13.650Z,32.13
2022-10-22T22:34:00.240Z,32.23
2022-10-22T22:36:46.701Z,36.87
2022-10-22T22:39:29.926Z,34.30
2022-10-22T22:42:13.036Z,33.23
2022-10-22T22:44:58.160Z,45.03
2022-10-22T22:47:41.556Z,35.97
2022-10-22T22:50:24.822Z,40.30
2022-10-22T22:53:09.257Z,37.77
2022-10-22T22:55:52.353Z,42.87
2022-10-22T22:58:36.224Z,36.33
2022-10-22T23:01:21.606Z,46.70
2022-10-22T23:04:07.051Z,33.47
2022-10-22T23:06:54.411Z,31.83
2022-10-22T23:09:38.954Z,33.47
2022-10-22T23:12:22.025Z,31.90
2022-10-22T23:15:05.569Z,31.80
2022-10-22T23:17:48.622Z,30.77
2022-10-22T23:20:31.657Z,41.57
2022-10-22T23:23:14.787Z,32.37
2022-10-22T23:25:59.545Z,30.43
2022-10-22T23:28:42.783Z,35.70
2022-10-22T23:31:26.235Z,35.67
2022-10-22T23:34:13.491Z,33.33
2022-10-22T23:36:58.299Z,27.43
2022-10-22T23:39:41.380Z,33.30
2022-10-22T23:42:25.929Z,33.03
2022-10-22T23:45:09.821Z,31.90
2022-10-22T23:47:53.504Z,36.33
2022-10-22T23:50:38.141Z,34.83
2022-10-22T23:53:21.297Z,36.03
2022-10-22T23:56:06.614Z,35.13
2022-10-22T23:58:52.765Z,36.50
